Time;durP1;ratioP1;P1;durP2;ratioP2;P2;SDS_P1;SDS_P2;PMS_P1;PMS_P2;Temp;Humidity;BMP_temperature;BMP_pressure;BME280_temperature;BME280_humidity;BME280_pressure;Samples;Min_cycle;Max_cycle;Signal;HPM_P1;HPM_P2
2022/04/30 00:01:19;;;;;;;6.75;3.90;;;;;;;7.28;76.55;102927.22;5113262;28;20028;-33
2022/04/30 00:03:44;;;;;;;7.20;3.22;;;;;;;7.33;75.40;102945.59;5113398;28;20398;-33
2022/04/30 00:06:10;;;;;;;4.30;2.92;;;;;;;7.30;75.76;102917.13;5094313;28;20043;-33
2022/04/30 00:08:35;;;;;;;4.03;2.73;;;;;;;7.33;75.87;102924.06;5112882;28;20103;-33
2022/04/30 00:11:00;;;;;;;6.57;2.90;;;;;;;7.29;76.17;102928.91;5113450;28;20030;-33
2022/04/30 00:13:25;;;;;;;4.13;2.40;;;;;;;7.27;76.26;102930.06;5113092;28;20055;-33
2022/04/30 00:15:51;;;;;;;3.13;2.10;;;;;;;7.21;75.79;102921.63;5113016;28;20497;-33
2022/04/30 00:18:16;;;;;;;2.77;2.10;;;;;;;7.26;75.68;102931.91;5113086;28;20364;-33
2022/04/30 00:20:47;;;;;;;4.83;2.90;;;;;;;7.32;75.88;102933.13;5093780;28;20040;-33
2022/04/30 00:23:20;;;;;;;5.00;2.53;;;;;;;7.17;75.31;102922.09;5113444;28;20028;-34
2022/04/30 00:25:53;;;;;;;2.67;2.30;;;;;;;7.29;75.51;102937.00;5112760;28;20491;-33
2022/04/30 00:28:21;;;;;;;4.05;2.30;;;;;;;7.23;76.50;102934.94;5112964;28;20027;-33
2022/04/30 00:30:47;;;;;;;3.72;2.53;;;;;;;6.92;77.18;102923.75;5116790;28;20051;-33
2022/04/30 00:33:12;;;;;;;2.88;2.42;;;;;;;6.99;76.71;102922.16;5116904;28;20424;-33
2022/04/30 00:35:38;;;;;;;3.10;2.20;;;;;;;7.11;76.89;102930.81;5116470;28;20058;-33
2022/04/30 00:38:04;;;;;;;4.22;2.67;;;;;;;7.04;76.97;102921.69;5116543;28;20403;-34
2022/04/30 00:40:29;;;;;;;5.22;2.60;;;;;;;7.10;76.89;102923.75;5116784;28;20110;-33
2022/04/30 00:42:54;;;;;;;4.32;2.40;;;;;;;7.01;76.99;102917.44;5116108;28;20498;-33
2022/04/30 00:45:20;;;;;;;5.07;2.70;;;;;;;7.08;77.02;102920.38;5098125;28;20044;-33
2022/04/30 00:47:46;;;;;;;4.32;2.55;;;;;;;7.05;77.08;102921.50;5115725;28;20024;-33
2022/04/30 00:50:15;;;;;;;3.38;2.60;;;;;;;7.07;77.09;102915.97;5116054;28;20444;-33
2022/04/30 00:52:42;;;;;;;3.17;2.30;;;;;;;6.97;77.74;102919.59;5114959;28;20403;-33
2022/04/30 00:55:08;;;;;;;4.60;2.80;;;;;;;6.99;76.66;102922.16;5116186;28;20037;-33
2022/04/30 00:57:36;;;;;;;4.07;2.45;;;;;;;7.03;77.30;102917.28;5116058;28;20019;-33
2022/04/30 01:00:04;;;;;;;3.63;2.50;;;;;;;6.96;77.47;102922.44;5116373;28;20448;-33
2022/04/30 01:02:32;;;;;;;4.32;2.60;;;;;;;6.97;77.17;102913.38;5115708;28;20041;-33
2022/04/30 01:04:59;;;;;;;4.80;2.85;;;;;;;6.97;77.23;102914.22;5115502;28;20087;-33
2022/04/30 01:07:26;;;;;;;3.47;2.47;;;;;;;6.90;77.41;102906.94;5115990;28;20369;-33
2022/04/30 01:09:53;;;;;;;4.30;2.70;;;;;;;6.77;77.99;102895.75;5115631;28;20099;-32
2022/04/30 01:12:20;;;;;;;4.55;2.83;;;;;;;6.85;78.38;102896.66;5115480;28;20051;-33
2022/04/30 01:14:47;;;;;;;4.35;2.70;;;;;;;6.79;78.40;102909.91;5115881;28;20034;-33
2022/04/30 01:17:12;;;;;;;3.35;2.70;;;;;;;6.67;78.56;102887.75;5115781;28;20062;-33
2022/04/30 01:19:43;;;;;;;3.65;2.58;;;;;;;6.66;78.07;102899.53;5116045;28;20059;-33
2022/04/30 01:22:33;;;;;;;5.25;2.83;;;;;;;6.76;78.78;102910.19;5115626;28;20077;-33
2022/04/30 01:25:01;;;;;;;3.75;2.88;;;;;;;6.71;79.38;102899.91;5115603;28;20111;-34
2022/04/30 01:27:28;;;;;;;4.10;3.22;;;;;;;6.66;79.09;102904.91;5115658;28;20102;-33
2022/04/30 01:29:58;;;;;;;5.07;2.80;;;;;;;6.62;79.21;102904.34;5114936;28;20500;-34
2022/04/30 01:38:00;;;;;;;5.10;3.40;;;;;;;6.56;79.92;102901.44;5115220;28;20050;-33
2022/04/30 01:40:25;;;;;;;4.68;2.80;;;;;;;6.51;79.81;102896.53;5115085;28;20032;-33
2022/04/30 01:42:52;;;;;;;4.00;2.83;;;;;;;6.46;79.87;102896.16;5114778;28;20123;-33
2022/04/30 01:45:18;;;;;;;4.32;2.97;;;;;;;6.49;79.69;102895.00;5115039;28;20253;-33
2022/04/30 01:47:45;;;;;;;4.38;2.90;;;;;;;6.38;79.72;102893.38;5114631;28;20026;-33
2022/04/30 01:50:12;;;;;;;7.10;3.17;;;;;;;6.47;79.93;102905.06;5115096;28;20023;-34
2022/04/30 01:52:38;;;;;;;4.32;3.05;;;;;;;6.35;79.88;102878.44;5114621;28;20110;-33
2022/04/30 01:55:04;;;;;;;4.03;3.37;;;;;;;6.44;80.32;102899.00;5115222;28;20027;-33
2022/04/30 01:57:29;;;;;;;5.07;3.83;;;;;;;6.35;80.47;102885.66;5115014;28;20136;-33
2022/04/30 01:59:56;;;;;;;4.00;3.53;;;;;;;6.34;80.72;102898.22;5096267;28;20049;-33
2022/04/30 02:02:24;;;;;;;5.47;3.75;;;;;;;6.23;80.73;102895.75;5114853;28;20028;-33
2022/04/30 02:04:55;;;;;;;6.30;3.38;;;;;;;6.25;81.62;102895.63;5114591;28;20027;-33
2022/04/30 02:07:22;;;;;;;8.52;3.55;;;;;;;6.17;80.99;102880.25;5115123;28;20054;-33
2022/04/30 02:09:51;;;;;;;4.93;3.08;;;;;;;6.19;80.74;102883.63;5114898;28;20380;-34
2022/04/30 02:12:16;;;;;;;6.38;3.47;;;;;;;6.15;81.31;102888.47;5114357;28;20097;-34
2022/04/30 02:14:48;;;;;;;4.93;3.30;;;;;;;6.20;81.52;102879.97;5114463;28;20032;-33
2022/04/30 02:17:15;;;;;;;3.90;3.15;;;;;;;6.22;81.36;102886.00;5114360;28;20479;-33
2022/04/30 02:22:27;;;;;;;5.68;3.85;;;;;;;6.06;81.51;102881.31;5114042;28;20089;-34
2022/04/30 02:24:53;;;;;;;5.18;3.95;;;;;;;6.04;82.00;102877.09;5114085;28;20077;-33
2022/04/30 02:27:18;;;;;;;4.35;3.85;;;;;;;6.08;81.65;102876.63;5114683;28;20031;-33
2022/04/30 02:29:44;;;;;;;4.57;3.50;;;;;;;6.06;81.91;102885.84;5113784;28;20027;-33
2022/04/30 02:32:10;;;;;;;4.72;3.78;;;;;;;6.03;81.81;102872.72;5113888;28;20027;-33
2022/04/30 02:34:35;;;;;;;4.63;3.15;;;;;;;6.01;81.67;102870.19;5113785;28;20023;-33
2022/04/30 02:37:03;;;;;;;5.13;4.00;;;;;;;5.96;82.21;102863.59;5114611;28;20425;-33
2022/04/30 02:39:29;;;;;;;5.55;3.83;;;;;;;5.93;81.73;102870.94;5113911;28;20035;-33
2022/04/30 02:41:54;;;;;;;5.82;3.60;;;;;;;5.94;82.59;102861.88;5114160;28;20406;-33
2022/04/30 02:44:20;;;;;;;6.80;4.60;;;;;;;5.94;82.72;102861.88;5114366;28;20110;-33
2022/04/30 02:46:45;;;;;;;4.20;3.33;;;;;;;5.98;82.13;102865.09;5114249;28;20024;-33
2022/04/30 02:49:10;;;;;;;5.47;3.90;;;;;;;5.93;81.33;102854.81;5113713;28;20474;-34
2022/04/30 02:51:36;;;;;;;7.13;3.87;;;;;;;5.94;82.17;102859.19;5113978;28;20027;-33
2022/04/30 02:54:01;;;;;;;4.73;3.97;;;;;;;6.00;82.80;102860.41;5114225;28;20024;-33
2022/04/30 02:56:27;;;;;;;5.00;4.00;;;;;;;5.96;83.06;102856.38;5114016;28;20023;-33
2022/04/30 03:01:36;;;;;;;5.55;4.30;;;;;;;5.90;83.07;102859.59;5114392;28;20042;-33
2022/04/30 03:04:04;;;;;;;6.77;4.10;;;;;;;5.87;82.96;102860.78;5113641;28;20446;-33
2022/04/30 03:06:35;;;;;;;6.55;4.35;;;;;;;5.80;83.81;102856.13;5114055;28;20042;-33
2022/04/30 03:09:01;;;;;;;5.00;3.75;;;;;;;5.81;83.83;102857.84;5113754;28;20035;-33
2022/04/30 03:11:26;;;;;;;4.97;3.95;;;;;;;5.76;83.90;102855.63;5113777;28;20032;-33
2022/04/30 03:13:52;;;;;;;6.87;4.53;;;;;;;5.76;84.07;102857.44;5114169;28;20062;-33
2022/04/30 03:21:45;;;;;;;5.97;4.15;;;;;;;5.51;84.69;102849.09;5113257;28;20058;-33
2022/04/30 03:24:13;;;;;;;4.60;4.10;;;;;;;5.60;84.32;102852.72;5095446;28;20484;-33
2022/04/30 03:26:38;;;;;;;6.25;4.70;;;;;;;5.57;84.81;102847.66;5113062;28;20035;-33
2022/04/30 03:29:04;;;;;;;6.23;4.67;;;;;;;5.53;84.29;102843.59;5113054;28;20073;-33
2022/04/30 03:31:30;;;;;;;4.67;4.10;;;;;;;5.67;84.53;102843.09;5113388;28;20027;-34
2022/04/30 03:33:56;;;;;;;5.65;4.50;;;;;;;5.57;84.88;102823.50;5113333;28;20028;-33
2022/04/30 03:36:21;;;;;;;6.25;4.55;;;;;;;5.70;85.17;102840.09;5113540;28;20045;-34
2022/04/30 03:38:47;;;;;;;9.57;5.77;;;;;;;5.46;85.21;102818.31;5112941;28;20500;-33
2022/04/30 03:41:13;;;;;;;7.00;4.90;;;;;;;5.60;85.01;102839.28;5113916;28;20027;-33
2022/04/30 03:43:38;;;;;;;6.03;5.18;;;;;;;5.43;85.01;102836.44;5113102;28;20144;-33
2022/04/30 03:46:05;;;;;;;6.83;4.97;;;;;;;5.33;85.40;102829.41;5113492;28;20352;-33
2022/04/30 03:48:30;;;;;;;9.82;5.60;;;;;;;5.50;85.52;102836.66;5113279;28;20281;-33
2022/04/30 03:50:57;;;;;;;7.17;5.27;;;;;;;5.46;85.88;102840.63;5113442;28;20381;-33
2022/04/30 03:53:22;;;;;;;6.32;5.18;;;;;;;5.38;86.23;102846.75;5113024;28;20035;-33
2022/04/30 03:55:48;;;;;;;7.72;5.40;;;;;;;5.37;85.17;102837.03;5113121;28;20039;-33
2022/04/30 03:58:13;;;;;;;7.10;5.13;;;;;;;5.45;85.50;102840.78;5112737;28;20024;-33
2022/04/30 04:00:39;;;;;;;7.57;5.67;;;;;;;5.41;85.96;102832.19;5112942;28;20158;-33
2022/04/30 04:03:04;;;;;;;6.73;4.67;;;;;;;5.36;85.71;102834.47;5113156;28;20153;-33
2022/04/30 04:05:31;;;;;;;7.03;5.20;;;;;;;5.30;86.64;102827.84;5116365;28;20594;-33
2022/04/30 04:07:57;;;;;;;6.60;4.82;;;;;;;5.27;86.72;102829.97;5116878;28;20125;-33
2022/04/30 04:10:23;;;;;;;6.63;5.10;;;;;;;5.25;86.63;102843.56;5116856;28;20031;-33
2022/04/30 04:12:50;;;;;;;6.18;5.28;;;;;;;5.27;86.86;102841.59;5116865;28;20048;-33
2022/04/30 04:17:59;;;;;;;8.05;6.05;;;;;;;5.03;87.80;102817.13;5117290;28;20042;-33
2022/04/30 04:20:27;;;;;;;6.70;5.97;;;;;;;5.15;86.67;102843.59;5116630;28;20094;-33
2022/04/30 04:22:54;;;;;;;5.60;5.03;;;;;;;5.07;86.56;102837.25;5116771;28;20368;-33
2022/04/30 04:28:04;;;;;;;7.07;5.57;;;;;;;5.06;86.91;102831.06;5117015;28;20126;-33
2022/04/30 04:30:31;;;;;;;7.53;6.00;;;;;;;5.11;87.04;102836.81;5116743;28;20110;-33
2022/04/30 04:32:57;;;;;;;7.10;6.30;;;;;;;5.16;87.62;102845.28;5116440;28;20028;-33
2022/04/30 04:35:24;;;;;;;6.95;5.53;;;;;;;5.00;87.27;102822.75;5116629;28;20028;-33
2022/04/30 04:37:49;;;;;;;5.88;5.30;;;;;;;5.15;87.14;102840.06;5116484;28;20110;-33
2022/04/30 04:40:16;;;;;;;9.48;6.00;;;;;;;5.16;87.75;102844.44;5116332;28;20066;-33
2022/04/30 04:42:42;;;;;;;7.15;5.35;;;;;;;5.23;86.89;102853.59;5116094;28;20117;-33
2022/04/30 04:45:08;;;;;;;;;;;;;;;5.37;85.64;102853.13;5117007;28;20031;-33
2022/04/30 04:47:34;;;;;;;7.38;5.75;;;;;;;5.34;87.82;102855.25;5116659;28;19908;-34
2022/04/30 04:50:01;;;;;;;;;;;;;;;5.43;85.33;102859.72;5116924;28;20059;-34
2022/04/30 04:52:27;;;;;;;8.23;5.53;;;;;;;5.25;87.15;102848.91;5115897;28;20287;-34
2022/04/30 04:54:52;;;;;;;7.93;6.13;;;;;;;5.32;87.77;102862.56;5116314;28;20055;-34
2022/04/30 04:57:18;;;;;;;9.77;6.67;;;;;;;5.36;88.43;102867.50;5116197;28;20062;-34
2022/04/30 04:59:43;;;;;;;8.43;6.00;;;;;;;5.49;88.01;102867.19;5115922;28;20028;-33
2022/04/30 05:02:10;;;;;;;8.30;6.20;;;;;;;5.53;88.01;102865.06;5116373;28;20023;-33
2022/04/30 05:04:36;;;;;;;8.48;6.35;;;;;;;5.53;87.80;102862.38;5115990;28;20080;-33
2022/04/30 05:07:01;;;;;;;7.97;6.30;;;;;;;5.65;88.12;102871.91;5115824;28;20421;-33
2022/04/30 05:09:26;;;;;;;8.17;5.83;;;;;;;5.72;87.22;102880.22;5116124;28;20062;-33
2022/04/30 05:11:53;;;;;;;8.43;6.17;;;;;;;5.71;87.58;102887.44;5097499;28;20258;-33
2022/04/30 05:14:18;;;;;;;7.95;5.53;;;;;;;5.89;87.72;102874.88;5115955;28;20043;-33
2022/04/30 05:16:44;;;;;;;6.63;5.80;;;;;;;5.93;85.76;102886.19;5115533;28;20470;-33
2022/04/30 05:19:09;;;;;;;7.30;6.10;;;;;;;6.00;85.21;102876.53;5116105;28;20416;-33
2022/04/30 05:21:35;;;;;;;6.83;5.70;;;;;;;5.92;85.63;102854.97;5116025;28;20038;-33
2022/04/30 05:24:00;;;;;;;6.93;6.20;;;;;;;6.08;86.16;102879.31;5115477;28;20028;-33
2022/04/30 05:26:25;;;;;;;6.30;5.40;;;;;;;6.30;86.80;102882.56;5115752;28;20043;-33
2022/04/30 05:28:51;;;;;;;10.60;5.77;;;;;;;6.34;86.00;102874.03;5096784;28;20064;-33
2022/04/30 05:31:17;;;;;;;8.63;5.85;;;;;;;6.36;85.41;102880.09;5115662;28;20353;-34
2022/04/30 05:33:42;;;;;;;8.23;6.10;;;;;;;6.43;85.04;102873.09;5115100;28;20493;-33
2022/04/30 05:36:08;;;;;;;6.87;5.30;;;;;;;6.42;84.47;102874.09;5115326;28;20023;-33
2022/04/30 05:38:33;;;;;;;7.32;5.95;;;;;;;6.50;85.52;102872.50;5096767;28;20046;-34
2022/04/30 05:40:58;;;;;;;7.40;5.93;;;;;;;6.55;86.18;102878.25;5115932;28;20111;-33
2022/04/30 05:43:24;;;;;;;8.60;6.70;;;;;;;6.48;86.33;102864.56;5115046;28;20618;-33
2022/04/30 05:45:49;;;;;;;9.10;5.90;;;;;;;6.55;85.66;102862.13;5114728;28;20073;-33
2022/04/30 05:48:14;;;;;;;8.47;5.60;;;;;;;6.69;85.88;102875.03;5115474;28;20028;-33
2022/04/30 05:50:40;;;;;;;8.73;5.77;;;;;;;6.68;86.23;102871.47;5114737;28;20027;-33
2022/04/30 05:53:05;;;;;;;6.83;6.10;;;;;;;6.77;86.32;102880.44;5114907;28;20024;-33
2022/04/30 05:55:31;;;;;;;11.48;6.63;;;;;;;6.74;87.15;102874.56;5115080;28;20102;-33
2022/04/30 05:57:56;;;;;;;7.15;5.68;;;;;;;6.88;85.92;102880.22;5114561;28;20387;-34
2022/04/30 06:00:22;;;;;;;6.20;5.07;;;;;;;6.97;85.65;102873.03;5114775;28;20081;-34
2022/04/30 06:02:48;;;;;;;6.87;5.30;;;;;;;7.12;83.54;102878.66;5114168;28;20024;-34
2022/04/30 06:05:14;;;;;;;5.57;4.95;;;;;;;7.18;83.40;102880.75;5114491;28;20293;-34
2022/04/30 06:07:39;;;;;;;9.07;5.47;;;;;;;7.21;83.60;102877.72;5114567;28;20067;-34
2022/04/30 06:10:05;;;;;;;8.87;5.17;;;;;;;7.21;84.36;102880.41;5115208;28;20107;-34
2022/04/30 06:12:31;;;;;;;8.05;5.55;;;;;;;7.29;84.51;102876.94;5114109;28;20471;-34
2022/04/30 06:14:57;;;;;;;10.32;6.80;;;;;;;7.31;84.66;102874.91;5114783;28;20063;-34
2022/04/30 06:17:22;;;;;;;6.10;5.50;;;;;;;7.39;84.17;102874.97;5114670;28;20039;-33
2022/04/30 06:19:47;;;;;;;26.00;7.73;;;;;;;7.42;84.15;102880.03;5114391;28;20027;-33
2022/04/30 06:22:13;;;;;;;35.07;8.60;;;;;;;7.52;83.49;102877.22;5115096;28;20402;-33
2022/04/30 06:24:38;;;;;;;8.07;5.60;;;;;;;7.54;83.75;102888.69;5095956;28;20043;-33
2022/04/30 06:27:04;;;;;;;7.37;5.73;;;;;;;7.56;84.44;102883.97;5114020;28;20028;-33
2022/04/30 06:29:29;;;;;;;10.77;5.97;;;;;;;7.61;83.68;102892.41;5114091;28;20023;-33
2022/04/30 06:31:56;;;;;;;6.63;5.43;;;;;;;7.77;84.67;102884.41;5114209;28;20474;-33
2022/04/30 06:34:22;;;;;;;5.45;4.95;;;;;;;7.78;82.92;102891.47;5114310;28;20426;-33
2022/04/30 06:36:47;;;;;;;71.45;14.05;;;;;;;7.80;82.99;102888.59;5114532;28;20027;-33
2022/04/30 06:39:13;;;;;;;23.03;8.07;;;;;;;7.80;83.73;102873.28;5113583;28;20027;-34
2022/04/30 06:41:38;;;;;;;80.28;13.80;;;;;;;7.97;82.22;102887.66;5114490;28;20024;-33
2022/04/30 06:44:03;;;;;;;33.03;8.17;;;;;;;8.05;82.46;102884.13;5113549;28;20019;-33
2022/04/30 06:46:29;;;;;;;9.27;5.88;;;;;;;8.08;82.97;102875.72;5113846;28;20047;-33
2022/04/30 06:48:54;;;;;;;7.53;5.23;;;;;;;8.17;83.09;102877.44;5113732;28;20059;-33
2022/04/30 06:51:19;;;;;;;8.67;5.50;;;;;;;8.00;81.45;102866.63;5113798;28;20107;-33
2022/04/30 06:59:12;;;;;;;7.90;5.20;;;;;;;8.33;81.28;102874.75;5113446;28;20038;-34
2022/04/30 07:01:59;;;;;;;9.73;5.23;;;;;;;8.49;82.06;102880.22;5114033;28;20028;-33
2022/04/30 07:04:25;;;;;;;7.30;4.80;;;;;;;8.54;80.37;102865.38;5095643;28;20611;-33
2022/04/30 07:06:51;;;;;;;6.05;4.25;;;;;;;8.63;80.39;102875.16;5114278;28;20034;-33
2022/04/30 07:09:17;;;;;;;6.65;4.63;;;;;;;8.69;80.29;102875.34;5114195;28;20031;-34
2022/04/30 07:11:43;;;;;;;8.45;4.57;;;;;;;8.75;80.00;102874.66;5103971;28;20020;-33
2022/04/30 07:14:09;;;;;;;6.40;4.70;;;;;;;8.76;79.57;102875.50;5093811;28;20125;-33
2022/04/30 07:16:34;;;;;;;5.95;4.30;;;;;;;8.76;79.09;102887.13;5093162;28;20032;-34
2022/04/30 07:19:01;;;;;;;6.70;4.10;;;;;;;8.83;78.41;102872.94;5092599;28;20028;-32
2022/04/30 07:21:28;;;;;;;9.52;4.13;;;;;;;8.85;79.21;102877.16;5092890;28;20024;-33
2022/04/30 07:23:56;;;;;;;7.13;4.55;;;;;;;8.94;78.35;102878.84;5092929;28;20043;-33
2022/04/30 07:26:21;;;;;;;6.38;3.95;;;;;;;9.09;78.24;102880.84;5074468;28;20495;-33
2022/04/30 07:28:47;;;;;;;5.90;4.00;;;;;;;9.16;77.88;102876.44;5092707;28;20024;-33
2022/04/30 07:31:13;;;;;;;5.17;3.80;;;;;;;9.22;76.06;102863.13;5092744;28;20111;-33
2022/04/30 07:33:38;;;;;;;4.65;3.97;;;;;;;9.32;76.81;102876.41;5074402;28;20040;-33
2022/04/30 07:36:04;;;;;;;4.95;3.50;;;;;;;9.38;76.01;102869.47;5092901;28;20031;-34
2022/04/30 07:38:30;;;;;;;4.03;3.40;;;;;;;9.38;75.89;102848.72;5094480;28;20030;-34
2022/04/30 07:40:55;;;;;;;4.85;3.55;;;;;;;9.63;75.30;102875.63;5079171;28;20089;-34
2022/04/30 07:43:20;;;;;;;5.73;3.87;;;;;;;9.75;74.27;102877.75;5096755;28;20483;-34
2022/04/30 07:45:46;;;;;;;5.53;3.37;;;;;;;9.76;73.34;102873.19;5097314;28;20637;-34
2022/04/30 07:48:12;;;;;;;12.60;4.23;;;;;;;9.82;73.64;102868.97;5096924;28;20028;-34
2022/04/30 07:50:37;;;;;;;4.32;3.13;;;;;;;9.93;73.33;102872.09;5097338;28;20027;-34
2022/04/30 07:53:07;;;;;;;6.43;3.53;;;;;;;10.00;72.36;102856.00;5097185;28;20032;-34
2022/04/30 07:55:32;;;;;;;8.60;3.58;;;;;;;10.20;72.62;102859.94;5078692;28;20488;-34
2022/04/30 07:57:59;;;;;;;6.00;3.33;;;;;;;10.34;71.45;102862.91;5096752;28;20020;-34
2022/04/30 08:00:25;;;;;;;6.13;2.80;;;;;;;10.36;71.39;102864.44;5097304;28;20020;-34
2022/04/30 08:02:51;;;;;;;9.35;3.20;;;;;;;10.26;71.39;102855.72;5097155;28;20030;-34
2022/04/30 08:05:16;;;;;;;4.80;2.90;;;;;;;10.28;71.29;102853.66;5097170;28;20052;-34
2022/04/30 08:07:42;;;;;;;5.47;2.92;;;;;;;10.33;71.56;102864.78;5077773;28;20040;-34
2022/04/30 08:10:08;;;;;;;6.80;2.78;;;;;;;10.55;71.28;102860.41;5096709;28;20369;-34
2022/04/30 08:12:33;;;;;;;6.78;3.08;;;;;;;10.68;70.50;102852.47;5096646;28;20082;-34
2022/04/30 08:14:59;;;;;;;5.55;3.05;;;;;;;10.78;70.47;102852.22;5096744;28;20380;-34
2022/04/30 08:17:24;;;;;;;7.60;3.60;;;;;;;10.83;69.34;102855.22;5078379;28;20036;-34
2022/04/30 08:19:49;;;;;;;5.20;2.97;;;;;;;10.87;69.15;102844.88;5096650;28;20028;-34
2022/04/30 08:22:15;;;;;;;4.85;2.58;;;;;;;10.89;67.88;102840.97;5096577;28;20572;-34
2022/04/30 08:24:41;;;;;;;4.75;2.70;;;;;;;11.03;67.70;102850.97;5097169;28;20036;-34
2022/04/30 08:27:06;;;;;;;6.40;3.08;;;;;;;11.04;67.24;102855.38;5096494;28;20032;-34
2022/04/30 08:29:32;;;;;;;8.93;3.10;;;;;;;11.05;68.25;102857.03;5096240;28;20534;-34
2022/04/30 08:31:57;;;;;;;5.63;2.90;;;;;;;11.07;68.25;102849.56;5096548;28;20028;-34
2022/04/30 08:34:23;;;;;;;4.00;2.60;;;;;;;10.91;68.99;102857.84;5096179;28;20031;-34
2022/04/30 08:36:49;;;;;;;5.97;2.90;;;;;;;10.60;68.73;102854.44;5078334;28;20302;-34
2022/04/30 08:39:15;;;;;;;4.93;2.67;;;;;;;10.45;69.13;102844.41;5096408;28;20419;-34
2022/04/30 08:41:42;;;;;;;6.55;3.17;;;;;;;10.35;70.08;102851.09;5095688;28;20061;-34
2022/04/30 08:44:13;;;;;;;4.38;2.55;;;;;;;10.13;70.61;102858.97;5096079;28;20020;-34
2022/04/30 08:46:39;;;;;;;6.10;3.00;;;;;;;10.07;71.46;102849.72;5095864;28;20111;-34
2022/04/30 08:49:06;;;;;;;6.18;2.85;;;;;;;10.12;71.49;102848.34;5095629;28;20067;-34
2022/04/30 08:51:31;;;;;;;5.13;3.20;;;;;;;10.07;70.70;102840.78;5095041;28;20031;-34
2022/04/30 08:53:58;;;;;;;4.43;3.20;;;;;;;10.14;71.34;102846.28;5095343;28;20029;-34
2022/04/30 08:56:24;;;;;;;5.43;2.92;;;;;;;10.11;70.89;102836.69;5098718;28;20016;-34
2022/04/30 08:58:50;;;;;;;4.95;3.20;;;;;;;10.25;70.72;102843.22;5096583;28;20040;-34
2022/04/30 09:01:16;;;;;;;4.85;3.70;;;;;;;10.24;70.36;102839.66;5096133;28;20024;-34
2022/04/30 09:03:45;;;;;;;4.50;2.95;;;;;;;10.32;68.66;102836.06;5095767;28;20038;-34
2022/04/30 09:06:17;;;;;;;4.10;2.78;;;;;;;10.33;68.02;102829.63;5095518;28;20520;-34
2022/04/30 09:08:49;;;;;;;3.55;2.63;;;;;;;10.49;68.64;102837.63;5095380;28;20028;-34
2022/04/30 09:11:15;;;;;;;4.68;3.15;;;;;;;10.62;68.02;102828.88;5095543;28;20059;-34
2022/04/30 09:13:43;;;;;;;27.75;5.32;;;;;;;10.58;67.36;102806.75;5095106;28;20149;-34
2022/04/30 09:16:23;;;;;;;7.45;3.17;;;;;;;10.57;66.56;102818.59;5096027;28;20031;-34
2022/04/30 09:18:50;;;;;;;11.98;3.55;;;;;;;10.71;67.06;102833.19;5095228;28;20024;-34
2022/04/30 09:21:17;;;;;;;8.00;3.75;;;;;;;10.85;66.53;102828.81;5095272;28;20016;-34
2022/04/30 09:23:43;;;;;;;5.88;3.28;;;;;;;10.72;65.40;102818.63;5094879;28;20488;-34
2022/04/30 09:26:08;;;;;;;;;;;;;;;10.92;66.40;102832.47;5095940;28;20480;-34
2022/04/30 09:28:36;;;;;;;3.67;3.05;;;;;;;10.87;65.57;102834.03;5095197;28;19908;-34
2022/04/30 09:31:04;;;;;;;4.90;2.90;;;;;;;10.96;65.36;102832.94;5095018;28;20036;-34
2022/04/30 09:33:30;;;;;;;4.53;2.80;;;;;;;11.00;64.38;102820.72;5095212;28;20379;-34
2022/04/30 09:38:49;;;;;;;4.65;2.42;;;;;;;11.12;63.36;102813.81;5094730;28;20030;-34
2022/04/30 09:41:21;;;;;;;2.95;2.20;;;;;;;11.26;62.84;102817.53;5094644;28;20028;-34
2022/04/30 09:43:46;;;;;;;4.70;2.83;;;;;;;11.32;62.49;102819.50;5095493;28;20027;-34
2022/04/30 09:46:12;;;;;;;4.23;2.80;;;;;;;11.41;61.26;102810.25;5094913;28;20499;-34
2022/04/30 09:54:06;;;;;;;6.97;2.63;;;;;;;11.64;59.40;102804.69;5095242;28;20067;-34
2022/04/30 09:56:35;;;;;;;;;;;;;;;11.74;61.06;102804.41;5094715;28;20024;-34
2022/04/30 09:59:14;;;;;;;4.90;2.85;;;;;;;11.57;60.11;102804.63;5094619;28;19908;-34
2022/04/30 10:01:42;;;;;;;3.97;2.75;;;;;;;11.67;60.58;102803.50;5093641;28;20112;-33
2022/04/30 10:04:16;;;;;;;3.65;2.22;;;;;;;11.88;60.04;102798.13;5094478;28;20035;-33
2022/04/30 10:06:48;;;;;;;5.07;2.65;;;;;;;11.77;59.18;102799.44;5094417;28;20024;-34
2022/04/30 10:09:26;;;;;;;4.78;2.50;;;;;;;11.89;59.32;102796.25;5094612;28;20068;-34
2022/04/30 10:12:11;;;;;;;5.45;2.70;;;;;;;11.95;58.52;102795.47;5095093;28;20449;-34
2022/04/30 10:15:07;;;;;;;3.60;2.50;;;;;;;12.02;58.98;102786.38;5094490;28;20043;-34
2022/04/30 10:17:34;;;;;;;4.07;2.40;;;;;;;12.08;58.20;102776.63;5094134;28;20046;-34
2022/04/30 10:20:07;;;;;;;7.72;3.00;;;;;;;11.87;57.64;102776.63;5093751;28;20026;-34
2022/04/30 10:22:33;;;;;;;4.05;2.90;;;;;;;11.97;57.70;102775.28;5093645;28;20487;-34
2022/04/30 10:24:59;;;;;;;3.67;2.70;;;;;;;12.23;58.30;102779.28;5093960;28;20032;-34
2022/04/30 10:27:38;;;;;;;5.50;2.80;;;;;;;12.40;58.36;102760.88;5093786;28;20031;-33
2022/04/30 10:30:07;;;;;;;4.32;2.42;;;;;;;12.56;56.47;102772.25;5094772;28;20028;-33
2022/04/30 10:32:39;;;;;;;5.30;2.80;;;;;;;12.63;56.80;102767.69;5093730;28;20066;-34
2022/04/30 10:35:05;;;;;;;4.80;2.80;;;;;;;12.69;56.68;102763.38;5094402;28;20024;-34
2022/04/30 10:37:32;;;;;;;4.28;3.15;;;;;;;12.71;55.75;102738.75;5094193;28;20088;-34
2022/04/30 10:40:05;;;;;;;5.03;2.70;;;;;;;12.85;54.60;102760.34;5075954;28;20488;-34
2022/04/30 10:42:45;;;;;;;4.22;2.38;;;;;;;12.79;54.09;102760.31;5093113;28;20044;-34
2022/04/30 10:45:15;;;;;;;4.97;2.30;;;;;;;12.93;53.09;102744.91;5093469;28;20028;-34
2022/04/30 10:47:52;;;;;;;3.55;2.10;;;;;;;12.97;54.22;102747.03;5093972;28;20365;-34
2022/04/30 10:50:18;;;;;;;3.03;1.90;;;;;;;12.97;51.39;102746.19;5093675;28;20020;-34
2022/04/30 10:52:47;;;;;;;3.03;2.00;;;;;;;12.92;52.23;102744.06;5094032;28;20059;-34
2022/04/30 10:55:13;;;;;;;2.65;1.92;;;;;;;13.15;52.43;102732.91;5093536;28;20054;-34
2022/04/30 10:57:42;;;;;;;3.78;2.55;;;;;;;13.01;52.29;102731.19;5093699;28;20063;-34
2022/04/30 11:00:08;;;;;;;3.42;2.30;;;;;;;12.95;52.73;102729.28;5093988;28;20024;-34
2022/04/30 11:02:33;;;;;;;4.95;2.75;;;;;;;12.83;53.27;102731.69;5074772;28;20032;-34
2022/04/30 11:05:00;;;;;;;3.00;2.63;;;;;;;12.84;53.92;102728.81;5093261;28;20024;-34
2022/04/30 11:07:28;;;;;;;4.00;2.95;;;;;;;12.78;53.43;102707.03;5075037;28;20031;-34
2022/04/30 11:09:54;;;;;;;4.05;2.95;;;;;;;12.58;52.93;102731.34;5093186;28;20123;-34
2022/04/30 11:12:19;;;;;;;4.90;2.67;;;;;;;12.69;53.94;102721.78;5093238;28;20099;-34
2022/04/30 11:14:45;;;;;;;23.05;4.22;;;;;;;12.97;52.89;102719.88;5092686;28;20464;-35
2022/04/30 11:17:11;;;;;;;7.60;3.00;;;;;;;13.37;53.18;102720.94;5093142;28;20028;-35
2022/04/30 11:19:41;;;;;;;4.53;2.33;;;;;;;13.66;49.46;102718.88;5093810;28;20373;-35
2022/04/30 11:22:09;;;;;;;3.45;1.88;;;;;;;14.16;47.15;102714.78;5093593;28;20343;-35
2022/04/30 11:24:35;;;;;;;3.50;2.42;;;;;;;14.37;47.05;102702.00;5093158;28;20039;-35
2022/04/30 11:27:03;;;;;;;3.65;1.90;;;;;;;14.71;45.93;102695.47;5093724;28;20415;-35
2022/04/30 11:29:29;;;;;;;2.72;1.83;;;;;;;14.90;43.32;102699.19;5093144;28;20024;-33
2022/04/30 11:31:55;;;;;;;;;;;;;;;15.27;47.09;102688.53;5093534;28;20055;-35
2022/04/30 11:34:21;;;;;;;3.15;1.67;;;;;;;15.24;43.47;102683.53;5093075;28;20010;-34
2022/04/30 11:36:47;;;;;;;;;;;;;;;15.69;44.83;102687.06;5092981;28;20121;-35
2022/04/30 11:39:14;;;;;;;3.28;2.03;;;;;;;15.64;41.80;102685.00;5092618;28;19908;-35
2022/04/30 11:41:43;;;;;;;4.28;1.77;;;;;;;15.72;41.93;102683.06;5091946;28;20028;-35
2022/04/30 11:44:14;;;;;;;8.32;2.28;;;;;;;15.81;42.69;102679.00;5093631;28;20039;-35
2022/04/30 11:46:40;;;;;;;3.20;2.10;;;;;;;15.55;43.65;102691.72;5092720;28;20032;-33
2022/04/30 11:49:12;;;;;;;6.03;2.88;;;;;;;15.09;45.96;102687.38;5092723;28;20506;-34
2022/04/30 11:51:39;;;;;;;4.07;2.47;;;;;;;14.52;47.39;102669.13;5092713;28;20024;-33
2022/04/30 11:54:08;;;;;;;3.80;2.35;;;;;;;14.22;49.28;102679.63;5093355;28;20362;-33
2022/04/30 11:56:35;;;;;;;4.85;2.95;;;;;;;13.93;50.38;102684.44;5093320;28;20032;-34
2022/04/30 11:59:01;;;;;;;4.32;3.03;;;;;;;13.75;50.95;102693.19;5074828;28;20419;-34
2022/04/30 12:01:30;;;;;;;4.55;2.90;;;;;;;13.60;52.15;102692.53;5093347;28;20042;-34
2022/04/30 12:04:02;;;;;;;4.72;2.85;;;;;;;13.35;53.07;102693.09;5092863;28;20491;-34
2022/04/30 12:06:28;;;;;;;7.78;3.05;;;;;;;13.31;53.29;102685.56;5093542;28;20024;-34